Time;durP1;ratioP1;P1;durP2;ratioP2;P2;SDS_P1;SDS_P2;PMS_P1;PMS_P2;Temp;Humidity;BMP_temperature;BMP_pressure;BME280_temperature;BME280_humidity;BME280_pressure;Samples;Min_cycle;Max_cycle;Signal;HPM_P1;HPM_P2
2022/09/14 00:00:21;;;;;;;0.20;0.00;;;25.70;99.90;;;;;;26045039;22;20176;-70
2022/09/14 00:10:27;;;;;;;0.20;0.00;;;25.60;99.90;;;;;;26023950;22;20279;-68
2022/09/14 00:20:31;;;;;;;0.20;0.00;;;25.60;99.90;;;;;;26050236;22;20263;-67
2022/09/14 00:30:41;;;;;;;0.20;0.10;;;25.30;99.90;;;;;;26050032;22;20176;-69
2022/09/14 00:40:45;;;;;;;0.20;0.00;;;25.40;99.90;;;;;;26022191;22;20798;-68
2022/09/14 00:50:51;;;;;;;0.20;0.00;;;25.40;99.90;;;;;;26047743;22;20212;-69
2022/09/14 01:00:56;;;;;;;0.20;0.10;;;25.60;99.90;;;;;;26024004;22;20247;-68
2022/09/14 01:11:12;;;;;;;0.20;0.10;;;25.60;99.90;;;;;;26046240;22;20714;-68
2022/09/14 01:21:20;;;;;;;0.20;0.00;;;25.60;99.90;;;;;;26020191;22;20196;-68
2022/09/14 01:31:31;;;;;;;0.20;0.00;;;25.60;99.90;;;;;;26022617;22;20224;-67
2022/09/14 01:41:35;;;;;;;0.20;0.00;;;25.90;99.90;;;;;;26045530;22;20226;-67
2022/09/14 01:51:45;;;;;;;0.20;0.00;;;25.40;99.90;;;;;;26045331;22;20251;-67
2022/09/14 02:01:53;;;;;;;0.20;0.00;;;25.50;99.90;;;;;;26046521;22;20247;-67
2022/09/14 02:11:59;;;;;;;0.20;0.00;;;25.60;99.90;;;;;;26016798;22;20236;-68
2022/09/14 02:22:03;;;;;;;0.20;0.00;;;24.70;99.90;;;;;;26042888;22;20183;-67
2022/09/14 02:32:20;;;;;;;0.20;0.00;;;22.80;99.90;;;;;;26015859;22;20216;-68
2022/09/14 02:42:35;;;;;;;0.20;0.00;;;22.00;99.90;;;;;;26015420;22;20183;-67
2022/09/14 02:52:47;;;;;;;0.20;0.00;;;22.00;99.90;;;;;;26014424;22;20209;-67
2022/09/14 03:02:50;;;;;;;0.20;0.00;;;22.10;99.90;;;;;;25990611;22;20238;-68
2022/09/14 03:12:56;;;;;;;0.20;0.00;;;22.40;99.90;;;;;;26042221;22;20239;-67
2022/09/14 03:23:01;;;;;;;0.20;0.00;;;22.70;99.90;;;;;;26041703;22;20228;-67
2022/09/14 03:33:06;;;;;;;0.20;0.00;;;22.90;99.90;;;;;;26042115;22;20160;-66
2022/09/14 03:43:11;;;;;;;0.20;0.00;;;23.50;99.90;;;;;;26041846;22;20187;-67
2022/09/14 03:53:16;;;;;;;0.20;0.00;;;23.40;99.90;;;;;;26041807;22;20203;-66
2022/09/14 04:03:19;;;;;;;0.20;0.00;;;23.30;99.90;;;;;;26041276;22;20230;-67
2022/09/14 04:13:25;;;;;;;0.20;0.00;;;23.40;99.90;;;;;;26015005;22;20606;-67
2022/09/14 04:23:29;;;;;;;0.20;0.00;;;23.60;99.90;;;;;;26041006;22;20168;-67
2022/09/14 04:33:36;;;;;;;0.20;0.00;;;23.90;99.90;;;;;;26037770;22;20223;-68
2022/09/14 04:43:40;;;;;;;0.20;0.00;;;23.90;99.90;;;;;;26013676;22;20195;-68
2022/09/14 04:53:48;;;;;;;0.20;0.00;;;23.70;99.90;;;;;;26048861;22;20188;-67
2022/09/14 05:03:53;;;;;;;0.20;0.00;;;23.70;99.90;;;;;;26044754;22;20239;-67
2022/09/14 05:13:59;;;;;;;0.20;0.10;;;23.50;99.90;;;;;;26045240;22;20279;-67
2022/09/14 05:24:04;;;;;;;0.20;0.00;;;23.20;99.90;;;;;;26045180;22;20235;-67
2022/09/14 05:34:11;;;;;;;0.20;0.00;;;23.10;99.90;;;;;;26042662;22;20209;-68
2022/09/14 05:44:15;;;;;;;0.20;0.00;;;22.90;99.90;;;;;;26040433;22;20279;-66
2022/09/14 05:54:20;;;;;;;0.20;0.00;;;23.10;99.90;;;;;;26007764;22;20196;-68
2022/09/14 06:04:25;;;;;;;0.20;0.00;;;23.10;99.90;;;;;;26030846;22;20204;-68
2022/09/14 06:14:30;;;;;;;0.20;0.10;;;23.20;99.90;;;;;;26043217;22;20218;-68
2022/09/14 06:24:34;;;;;;;0.20;0.00;;;23.40;99.90;;;;;;26038162;22;20231;-68
2022/09/14 06:34:39;;;;;;;0.20;0.08;;;23.80;99.90;;;;;;26012475;22;20217;-68
2022/09/14 06:44:43;;;;;;;0.20;0.00;;;23.90;99.90;;;;;;26011178;22;20207;-68
2022/09/14 06:54:48;;;;;;;0.20;0.00;;;23.90;99.90;;;;;;26036741;22;20200;-68
2022/09/14 07:04:52;;;;;;;0.20;0.03;;;23.90;99.90;;;;;;26037123;22;20196;-69
2022/09/14 07:14:57;;;;;;;0.20;0.00;;;24.00;99.90;;;;;;26036669;22;20164;-67
2022/09/14 07:25:01;;;;;;;0.20;0.00;;;24.20;99.90;;;;;;26033994;22;20244;-69
2022/09/14 07:35:07;;;;;;;0.20;0.00;;;24.00;99.90;;;;;;26034869;22;20279;-68
2022/09/14 07:45:10;;;;;;;0.20;0.00;;;24.20;99.90;;;;;;26036202;22;20199;-68
2022/09/14 07:55:16;;;;;;;0.20;0.00;;;24.40;99.90;;;;;;26011310;22;20284;-69
2022/09/14 08:05:20;;;;;;;0.20;0.00;;;24.70;99.90;;;;;;26009588;22;20191;-69
2022/09/14 08:15:26;;;;;;;0.20;0.10;;;24.80;99.90;;;;;;26037550;22;20761;-68
2022/09/14 08:25:31;;;;;;;0.20;0.10;;;24.90;99.90;;;;;;26044974;22;20180;-70
2022/09/14 08:35:42;;;;;;;0.20;0.00;;;25.20;99.90;;;;;;26020417;22;20182;-68
2022/09/14 08:46:05;;;;;;;0.20;0.00;;;25.00;99.90;;;;;;26044299;22;20180;-68
2022/09/14 08:56:16;;;;;;;0.20;0.00;;;25.20;99.90;;;;;;25914837;23;20276;-70
2022/09/14 09:06:26;;;;;;;0.20;0.10;;;25.00;99.90;;;;;;25914368;23;20204;-70
2022/09/14 09:16:31;;;;;;;0.20;0.00;;;25.40;99.90;;;;;;25911561;23;20230;-69
2022/09/14 09:26:35;;;;;;;0.20;0.10;;;25.50;99.90;;;;;;25914972;23;20177;-69
2022/09/14 09:36:42;;;;;;;0.20;0.00;;;25.80;99.90;;;;;;25913089;23;20175;-69
2022/09/14 09:46:50;;;;;;;0.20;0.00;;;26.10;99.90;;;;;;25914774;22;20232;-68
2022/09/14 09:56:57;;;;;;;0.20;0.00;;;26.70;99.90;;;;;;26028232;22;20199;-69
2022/09/14 10:07:02;;;;;;;0.20;0.00;;;26.80;99.90;;;;;;26015233;22;20234;-69
2022/09/14 10:17:17;;;;;;;0.20;0.00;;;27.20;99.90;;;;;;26014884;22;20202;-69
2022/09/14 10:27:40;;;;;;;0.20;0.00;;;27.10;99.90;;;;;;26013519;22;20175;-68
2022/09/14 10:38:01;;;;;;;0.20;0.00;;;27.10;99.90;;;;;;26013214;22;20232;-69
2022/09/14 10:48:29;;;;;;;0.20;0.00;;;27.40;99.90;;;;;;26012763;22;20537;-70
2022/09/14 10:58:47;;;;;;;0.20;0.00;;;27.90;99.90;;;;;;26005783;22;20164;-68
2022/09/14 11:08:56;;;;;;;0.20;0.00;;;27.50;99.90;;;;;;26035911;22;20196;-70
2022/09/14 11:19:12;;;;;;;0.20;0.00;;;27.10;99.90;;;;;;26035426;22;20149;-68
2022/09/14 11:29:23;;;;;;;0.20;0.00;;;26.60;99.90;;;;;;26011527;22;20302;-68
2022/09/14 11:39:32;;;;;;;0.20;0.00;;;27.30;99.90;;;;;;26035090;22;20190;-69
2022/09/14 11:49:49;;;;;;;0.20;0.00;;;27.70;99.90;;;;;;26037269;22;20207;-68
2022/09/14 11:59:56;;;;;;;0.20;0.00;;;28.40;99.90;;;;;;26046049;22;20206;-68
2022/09/14 12:10:18;;;;;;;0.20;0.00;;;28.50;99.90;;;;;;26045594;22;20236;-69
2022/09/14 12:20:42;;;;;;;0.20;0.10;;;27.90;99.90;;;;;;26016833;22;20251;-68
2022/09/14 12:31:10;;;;;;;0.20;0.10;;;27.90;99.90;;;;;;26041454;22;20165;-69
2022/09/14 12:42:08;;;;;;;0.20;0.00;;;27.70;99.90;;;;;;26031579;22;20176;-70
2022/09/14 12:52:34;;;;;;;0.20;0.00;;;27.30;99.90;;;;;;25993506;22;20314;-68
2022/09/14 13:03:08;;;;;;;0.20;0.00;;;27.60;99.90;;;;;;26042388;22;20199;-67
2022/09/14 13:13:17;;;;;;;0.20;0.10;;;27.80;99.90;;;;;;26015275;22;20274;-69
2022/09/14 13:23:22;;;;;;;0.20;0.00;;;28.70;99.90;;;;;;26043792;22;20180;-69
2022/09/14 13:33:28;;;;;;;0.20;0.00;;;28.60;99.90;;;;;;26040949;22;20270;-69
2022/09/14 13:43:32;;;;;;;0.20;0.10;;;28.20;99.90;;;;;;26041887;22;20298;-69
2022/09/14 13:53:44;;;;;;;0.20;0.00;;;28.40;99.90;;;;;;26013149;22;20237;-68
2022/09/14 14:03:49;;;;;;;0.20;0.00;;;28.00;99.90;;;;;;26040670;22;20190;-71
2022/09/14 14:13:54;;;;;;;0.20;0.00;;;27.90;99.90;;;;;;26040569;22;20206;-70
2022/09/14 14:24:18;;;;;;;0.20;0.00;;;27.90;99.90;;;;;;26038329;22;20239;-67
2022/09/14 14:34:25;;;;;;;0.20;0.00;;;28.10;99.90;;;;;;26037905;22;20250;-68
2022/09/14 14:44:30;;;;;;;0.20;0.00;;;28.10;99.90;;;;;;26037431;22;20180;-68
2022/09/14 14:54:35;;;;;;;0.20;0.00;;;28.10;99.90;;;;;;26036320;22;20279;-69
2022/09/14 15:04:38;;;;;;;0.20;0.00;;;28.00;99.90;;;;;;26037896;22;20239;-70
2022/09/14 15:14:44;;;;;;;0.20;0.00;;;28.30;99.90;;;;;;26008842;22;20247;-68
2022/09/14 15:24:47;;;;;;;0.20;0.00;;;28.10;99.90;;;;;;26007327;22;20310;-68
2022/09/14 15:34:52;;;;;;;0.20;0.00;;;28.40;99.90;;;;;;26034562;22;20829;-69
2022/09/14 15:44:56;;;;;;;0.20;0.10;;;28.70;99.90;;;;;;26034890;22;20180;-68
2022/09/14 15:55:01;;;;;;;0.20;0.10;;;28.50;99.90;;;;;;26034269;22;20230;-69
2022/09/14 16:05:06;;;;;;;0.20;0.10;;;28.60;99.90;;;;;;26033538;22;20306;-69
2022/09/14 16:15:12;;;;;;;0.20;0.00;;;28.80;99.90;;;;;;26034975;22;20176;-70
2022/09/14 16:25:16;;;;;;;0.20;0.00;;;28.70;99.90;;;;;;26032163;22;20180;-68
2022/09/14 16:35:21;;;;;;;0.20;0.00;;;28.40;99.90;;;;;;26032527;22;20160;-71
2022/09/14 16:45:25;;;;;;;0.20;0.00;;;28.40;99.90;;;;;;26011208;22;20247;-68
2022/09/14 16:55:32;;;;;;;0.20;0.00;;;28.50;99.90;;;;;;26013319;22;20282;-69
2022/09/14 17:05:36;;;;;;;0.20;0.00;;;28.10;99.90;;;;;;26007851;22;20195;-70
2022/09/14 17:15:41;;;;;;;0.20;0.00;;;27.70;99.90;;;;;;26013434;22;20232;-73
2022/09/14 17:25:45;;;;;;;0.20;0.00;;;27.40;99.90;;;;;;26044336;22;20314;-68
2022/09/14 17:35:51;;;;;;;0.20;0.10;;;27.20;99.90;;;;;;26015497;22;20180;-71
2022/09/14 17:45:57;;;;;;;0.20;0.05;;;27.00;99.90;;;;;;26013960;22;20204;-70
2022/09/14 17:56:08;;;;;;;0.20;0.00;;;26.80;99.90;;;;;;25909844;23;20197;-69
2022/09/14 18:06:12;;;;;;;0.20;0.00;;;26.70;99.90;;;;;;25912437;23;20287;-69
2022/09/14 18:16:20;;;;;;;0.20;0.00;;;26.60;99.90;;;;;;25910735;23;20160;-69
2022/09/14 18:26:25;;;;;;;0.20;0.00;;;26.50;99.90;;;;;;25906878;23;20192;-70
2022/09/14 18:36:31;;;;;;;0.20;0.10;;;26.40;99.90;;;;;;25908873;23;20164;-69
2022/09/14 18:46:35;;;;;;;0.20;0.00;;;26.30;99.90;;;;;;25905625;23;20248;-68
2022/09/14 18:56:41;;;;;;;0.20;0.00;;;26.20;99.90;;;;;;26018846;22;20812;-69
2022/09/14 19:06:44;;;;;;;0.20;0.00;;;26.00;99.90;;;;;;26026748;22;20241;-69
2022/09/14 19:16:50;;;;;;;0.20;0.10;;;25.90;99.90;;;;;;26036454;22;20175;-69
2022/09/14 19:26:54;;;;;;;0.20;0.00;;;25.80;99.90;;;;;;26034533;22;20206;-68
2022/09/14 19:36:59;;;;;;;0.20;0.00;;;25.80;99.90;;;;;;26007402;22;20183;-69
2022/09/14 19:47:02;;;;;;;0.20;0.00;;;25.80;99.90;;;;;;26006296;22;20218;-68
2022/09/14 19:57:08;;;;;;;0.20;0.00;;;25.80;99.90;;;;;;26035234;22;20270;-68
2022/09/14 20:07:11;;;;;;;0.20;0.00;;;26.10;99.90;;;;;;26013827;22;20247;-69
2022/09/14 20:17:17;;;;;;;0.20;0.00;;;26.20;99.90;;;;;;26018263;22;20257;-70
2022/09/14 20:27:21;;;;;;;0.20;0.00;;;26.00;99.90;;;;;;26024210;22;20207;-69
2022/09/14 20:37:28;;;;;;;0.20;0.00;;;25.90;99.90;;;;;;26044697;22;20235;-69
2022/09/14 20:47:36;;;;;;;0.20;0.00;;;25.80;99.90;;;;;;26023100;22;20255;-69
2022/09/14 20:57:41;;;;;;;0.20;0.00;;;25.90;99.90;;;;;;25919455;23;20256;-69
2022/09/14 21:07:50;;;;;;;0.20;0.10;;;25.50;99.90;;;;;;25919670;22;20224;-69
2022/09/14 21:18:00;;;;;;;0.20;0.03;;;25.40;99.90;;;;;;25920157;23;20157;-77
2022/09/14 21:28:04;;;;;;;0.20;0.00;;;25.10;99.90;;;;;;25921495;22;20195;-71
2022/09/14 21:38:10;;;;;;;0.20;0.10;;;24.90;99.90;;;;;;25920190;22;20243;-69
2022/09/14 21:48:13;;;;;;;0.20;0.00;;;25.30;99.90;;;;;;25919301;22;20223;-68
2022/09/14 21:58:18;;;;;;;0.20;0.00;;;25.40;99.90;;;;;;26045988;22;20188;-69
2022/09/14 22:08:22;;;;;;;0.20;0.00;;;25.30;99.90;;;;;;26044356;22;20247;-69
2022/09/14 22:18:28;;;;;;;0.20;0.00;;;25.20;99.90;;;;;;25992042;22;20164;-69
2022/09/14 22:28:32;;;;;;;0.20;0.00;;;25.10;99.90;;;;;;26044107;22;20223;-69
2022/09/14 22:38:39;;;;;;;0.20;0.00;;;24.90;99.90;;;;;;26042821;22;20192;-69
2022/09/14 22:48:44;;;;;;;0.20;0.00;;;24.50;99.90;;;;;;26043500;22;21084;-69
2022/09/14 22:58:49;;;;;;;0.20;0.00;;;24.40;99.90;;;;;;26014153;22;20172;-69
2022/09/14 23:08:53;;;;;;;0.20;0.00;;;24.40;99.90;;;;;;26016152;22;20217;-69
2022/09/14 23:19:00;;;;;;;0.20;0.00;;;24.50;99.90;;;;;;26040082;22;20224;-69
2022/09/14 23:29:07;;;;;;;0.20;0.00;;;24.40;99.90;;;;;;26042888;22;20176;-68
2022/09/14 23:39:13;;;;;;;0.20;0.00;;;24.20;99.90;;;;;;26042115;22;20144;-68
2022/09/14 23:49:16;;;;;;;0.20;0.00;;;24.00;99.90;;;;;;26020408;22;20199;-69
2022/09/14 23:59:21;;;;;;;0.20;0.00;;;23.90;99.90;;;;;;26028609;22;20227;-69
